sensor_id;sensor_type;location;lat;lon;timestamp;P1;durP1;ratioP1;P2;durP2;ratioP2
76631;SDS011;65526;48.578;-4.520;2023-07-09T00:00:13;8.98;;;2.60;;
76631;SDS011;65526;48.578;-4.520;2023-07-09T00:02:41;10.77;;;2.30;;
76631;SDS011;65526;48.578;-4.520;2023-07-09T00:05:11;7.70;;;2.10;;
76631;SDS011;65526;48.578;-4.520;2023-07-09T00:07:39;7.38;;;1.83;;
76631;SDS011;65526;48.578;-4.520;2023-07-09T00:10:14;12.02;;;2.72;;
76631;SDS011;65526;48.578;-4.520;2023-07-09T00:15:10;9.00;;;1.65;;
76631;SDS011;65526;48.578;-4.520;2023-07-09T00:17:38;8.98;;;1.90;;
76631;SDS011;65526;48.578;-4.520;2023-07-09T00:20:06;15.88;;;2.00;;
76631;SDS011;65526;48.578;-4.520;2023-07-09T00:22:38;9.55;;;1.85;;
76631;SDS011;65526;48.578;-4.520;2023-07-09T00:25:05;10.63;;;1.95;;
76631;SDS011;65526;48.578;-4.520;2023-07-09T00:27:32;8.05;;;2.00;;
76631;SDS011;65526;48.578;-4.520;2023-07-09T00:29:58;17.02;;;1.52;;
76631;SDS011;65526;48.578;-4.520;2023-07-09T00:32:25;8.77;;;1.90;;
76631;SDS011;65526;48.578;-4.520;2023-07-09T00:34:54;17.38;;;2.13;;
76631;SDS011;65526;48.578;-4.520;2023-07-09T00:37:23;10.32;;;1.92;;
76631;SDS011;65526;48.578;-4.520;2023-07-09T00:39:54;11.38;;;1.80;;
76631;SDS011;65526;48.578;-4.520;2023-07-09T00:42:21;9.00;;;2.00;;
76631;SDS011;65526;48.578;-4.520;2023-07-09T00:44:53;10.57;;;1.75;;
76631;SDS011;65526;48.578;-4.520;2023-07-09T00:52:46;12.40;;;2.15;;
76631;SDS011;65526;48.578;-4.520;2023-07-09T00:55:18;12.02;;;2.17;;
76631;SDS011;65526;48.578;-4.520;2023-07-09T00:57:49;11.13;;;1.63;;
76631;SDS011;65526;48.578;-4.520;2023-07-09T01:00:23;13.35;;;2.15;;
76631;SDS011;65526;48.578;-4.520;2023-07-09T01:02:55;11.63;;;1.73;;
76631;SDS011;65526;48.578;-4.520;2023-07-09T01:05:23;12.73;;;1.65;;
76631;SDS011;65526;48.578;-4.520;2023-07-09T01:07:51;8.00;;;1.95;;
76631;SDS011;65526;48.578;-4.520;2023-07-09T01:10:19;5.97;;;1.63;;
76631;SDS011;65526;48.578;-4.520;2023-07-09T01:12:46;10.55;;;1.90;;
76631;SDS011;65526;48.578;-4.520;2023-07-09T01:15:15;11.95;;;2.10;;
76631;SDS011;65526;48.578;-4.520;2023-07-09T01:17:42;11.48;;;1.95;;
76631;SDS011;65526;48.578;-4.520;2023-07-09T01:20:14;10.95;;;1.65;;
76631;SDS011;65526;48.578;-4.520;2023-07-09T01:22:50;11.95;;;1.80;;
76631;SDS011;65526;48.578;-4.520;2023-07-09T01:25:20;9.07;;;1.50;;
76631;SDS011;65526;48.578;-4.520;2023-07-09T01:27:47;9.95;;;2.00;;
76631;SDS011;65526;48.578;-4.520;2023-07-09T01:30:26;8.10;;;1.60;;
76631;SDS011;65526;48.578;-4.520;2023-07-09T01:33:03;9.50;;;2.10;;
76631;SDS011;65526;48.578;-4.520;2023-07-09T01:35:34;10.10;;;1.83;;
76631;SDS011;65526;48.578;-4.520;2023-07-09T01:38:02;8.63;;;1.65;;
76631;SDS011;65526;48.578;-4.520;2023-07-09T01:40:34;10.73;;;2.15;;
76631;SDS011;65526;48.578;-4.520;2023-07-09T01:43:02;14.10;;;2.70;;
76631;SDS011;65526;48.578;-4.520;2023-07-09T01:45:32;10.93;;;1.63;;
76631;SDS011;65526;48.578;-4.520;2023-07-09T01:48:01;11.05;;;1.90;;
76631;SDS011;65526;48.578;-4.520;2023-07-09T01:50:28;8.82;;;2.97;;
76631;SDS011;65526;48.578;-4.520;2023-07-09T01:52:56;10.63;;;2.15;;
76631;SDS011;65526;48.578;-4.520;2023-07-09T01:55:23;11.10;;;2.00;;
76631;SDS011;65526;48.578;-4.520;2023-07-09T01:57:50;11.90;;;2.10;;
76631;SDS011;65526;48.578;-4.520;2023-07-09T02:00:18;14.38;;;2.30;;
76631;SDS011;65526;48.578;-4.520;2023-07-09T02:02:47;14.20;;;2.50;;
76631;SDS011;65526;48.578;-4.520;2023-07-09T02:05:16;12.90;;;2.33;;
76631;SDS011;65526;48.578;-4.520;2023-07-09T02:07:45;16.33;;;2.53;;
76631;SDS011;65526;48.578;-4.520;2023-07-09T02:10:15;9.05;;;1.80;;
76631;SDS011;65526;48.578;-4.520;2023-07-09T02:12:43;6.90;;;1.85;;
76631;SDS011;65526;48.578;-4.520;2023-07-09T02:15:10;10.68;;;2.40;;
76631;SDS011;65526;48.578;-4.520;2023-07-09T02:17:36;11.10;;;2.35;;
76631;SDS011;65526;48.578;-4.520;2023-07-09T02:20:03;10.20;;;3.15;;
76631;SDS011;65526;48.578;-4.520;2023-07-09T02:22:34;12.90;;;3.00;;
76631;SDS011;65526;48.578;-4.520;2023-07-09T02:25:02;10.50;;;2.75;;
76631;SDS011;65526;48.578;-4.520;2023-07-09T02:27:29;18.83;;;4.18;;
76631;SDS011;65526;48.578;-4.520;2023-07-09T02:29:56;12.10;;;2.67;;
76631;SDS011;65526;48.578;-4.520;2023-07-09T02:32:23;13.60;;;3.22;;
76631;SDS011;65526;48.578;-4.520;2023-07-09T02:34:55;12.88;;;3.30;;
76631;SDS011;65526;48.578;-4.520;2023-07-09T02:37:23;12.35;;;3.45;;
76631;SDS011;65526;48.578;-4.520;2023-07-09T02:39:51;8.85;;;2.40;;
76631;SDS011;65526;48.578;-4.520;2023-07-09T02:42:20;12.30;;;2.90;;
76631;SDS011;65526;48.578;-4.520;2023-07-09T02:44:48;12.02;;;3.15;;
76631;SDS011;65526;48.578;-4.520;2023-07-09T02:47:16;12.27;;;3.25;;
76631;SDS011;65526;48.578;-4.520;2023-07-09T02:49:44;15.57;;;3.53;;
76631;SDS011;65526;48.578;-4.520;2023-07-09T02:52:10;15.85;;;3.58;;
76631;SDS011;65526;48.578;-4.520;2023-07-09T02:54:37;8.48;;;2.92;;
76631;SDS011;65526;48.578;-4.520;2023-07-09T02:57:04;17.98;;;3.25;;
76631;SDS011;65526;48.578;-4.520;2023-07-09T02:59:31;9.20;;;2.80;;
76631;SDS011;65526;48.578;-4.520;2023-07-09T03:02:00;11.20;;;2.78;;
76631;SDS011;65526;48.578;-4.520;2023-07-09T03:04:27;11.52;;;3.10;;
76631;SDS011;65526;48.578;-4.520;2023-07-09T03:06:53;11.25;;;3.03;;
76631;SDS011;65526;48.578;-4.520;2023-07-09T03:09:20;10.98;;;3.17;;
76631;SDS011;65526;48.578;-4.520;2023-07-09T03:11:46;16.05;;;2.72;;
76631;SDS011;65526;48.578;-4.520;2023-07-09T03:14:15;10.10;;;2.78;;
76631;SDS011;65526;48.578;-4.520;2023-07-09T03:16:42;12.73;;;3.00;;
76631;SDS011;65526;48.578;-4.520;2023-07-09T03:19:08;10.60;;;3.40;;
76631;SDS011;65526;48.578;-4.520;2023-07-09T03:21:35;16.73;;;3.95;;
76631;SDS011;65526;48.578;-4.520;2023-07-09T03:24:01;12.63;;;3.20;;
76631;SDS011;65526;48.578;-4.520;2023-07-09T03:26:28;12.75;;;4.10;;
76631;SDS011;65526;48.578;-4.520;2023-07-09T03:28:55;12.95;;;4.25;;
76631;SDS011;65526;48.578;-4.520;2023-07-09T03:31:22;10.10;;;3.22;;
76631;SDS011;65526;48.578;-4.520;2023-07-09T03:33:49;13.35;;;3.05;;
76631;SDS011;65526;48.578;-4.520;2023-07-09T03:36:17;11.50;;;2.58;;
76631;SDS011;65526;48.578;-4.520;2023-07-09T03:38:45;10.18;;;2.50;;
76631;SDS011;65526;48.578;-4.520;2023-07-09T03:41:12;9.07;;;2.53;;
76631;SDS011;65526;48.578;-4.520;2023-07-09T03:43:39;7.60;;;2.15;;
76631;SDS011;65526;48.578;-4.520;2023-07-09T03:46:05;12.18;;;2.28;;
76631;SDS011;65526;48.578;-4.520;2023-07-09T03:48:31;12.05;;;1.70;;
76631;SDS011;65526;48.578;-4.520;2023-07-09T03:50:58;11.55;;;2.15;;
76631;SDS011;65526;48.578;-4.520;2023-07-09T03:53:24;12.90;;;2.08;;
76631;SDS011;65526;48.578;-4.520;2023-07-09T03:55:52;11.02;;;1.98;;
76631;SDS011;65526;48.578;-4.520;2023-07-09T03:58:20;11.55;;;2.15;;
76631;SDS011;65526;48.578;-4.520;2023-07-09T04:00:46;10.60;;;1.85;;
76631;SDS011;65526;48.578;-4.520;2023-07-09T04:03:13;14.57;;;2.60;;
76631;SDS011;65526;48.578;-4.520;2023-07-09T04:05:39;8.45;;;1.98;;
76631;SDS011;65526;48.578;-4.520;2023-07-09T04:08:06;9.57;;;2.00;;
76631;SDS011;65526;48.578;-4.520;2023-07-09T04:10:32;11.57;;;1.92;;
76631;SDS011;65526;48.578;-4.520;2023-07-09T04:12:58;11.02;;;2.13;;
76631;SDS011;65526;48.578;-4.520;2023-07-09T04:15:25;11.68;;;1.75;;
76631;SDS011;65526;48.578;-4.520;2023-07-09T04:17:52;9.43;;;2.30;;
76631;SDS011;65526;48.578;-4.520;2023-07-09T04:20:19;17.88;;;2.15;;
76631;SDS011;65526;48.578;-4.520;2023-07-09T04:22:45;13.20;;;2.00;;
76631;SDS011;65526;48.578;-4.520;2023-07-09T04:25:12;13.07;;;2.28;;
76631;SDS011;65526;48.578;-4.520;2023-07-09T04:27:39;7.38;;;2.10;;
76631;SDS011;65526;48.578;-4.520;2023-07-09T04:30:07;11.43;;;2.05;;
76631;SDS011;65526;48.578;-4.520;2023-07-09T04:32:37;9.73;;;1.98;;
76631;SDS011;65526;48.578;-4.520;2023-07-09T04:35:04;15.57;;;2.42;;
76631;SDS011;65526;48.578;-4.520;2023-07-09T04:37:33;14.63;;;2.63;;
76631;SDS011;65526;48.578;-4.520;2023-07-09T04:40:00;13.95;;;2.10;;
76631;SDS011;65526;48.578;-4.520;2023-07-09T04:42:26;11.55;;;2.05;;
76631;SDS011;65526;48.578;-4.520;2023-07-09T04:44:53;11.20;;;2.22;;
76631;SDS011;65526;48.578;-4.520;2023-07-09T04:47:19;9.15;;;1.92;;
76631;SDS011;65526;48.578;-4.520;2023-07-09T04:49:45;14.65;;;2.25;;
76631;SDS011;65526;48.578;-4.520;2023-07-09T04:52:12;21.67;;;2.10;;
76631;SDS011;65526;48.578;-4.520;2023-07-09T04:54:40;12.60;;;2.50;;
76631;SDS011;65526;48.578;-4.520;2023-07-09T04:57:10;13.77;;;2.88;;
76631;SDS011;65526;48.578;-4.520;2023-07-09T04:59:37;17.48;;;2.83;;
76631;SDS011;65526;48.578;-4.520;2023-07-09T05:02:04;11.45;;;2.30;;
76631;SDS011;65526;48.578;-4.520;2023-07-09T05:04:31;11.80;;;2.15;;
76631;SDS011;65526;48.578;-4.520;2023-07-09T05:06:58;11.60;;;2.30;;
76631;SDS011;65526;48.578;-4.520;2023-07-09T05:09:24;11.98;;;2.28;;
76631;SDS011;65526;48.578;-4.520;2023-07-09T05:11:51;14.95;;;2.25;;
76631;SDS011;65526;48.578;-4.520;2023-07-09T05:14:18;16.85;;;3.05;;
76631;SDS011;65526;48.578;-4.520;2023-07-09T05:16:45;16.90;;;3.22;;
76631;SDS011;65526;48.578;-4.520;2023-07-09T05:19:11;14.10;;;2.22;;
76631;SDS011;65526;48.578;-4.520;2023-07-09T05:21:38;13.23;;;1.83;;
76631;SDS011;65526;48.578;-4.520;2023-07-09T05:24:05;15.40;;;2.00;;
76631;SDS011;65526;48.578;-4.520;2023-07-09T05:26:31;15.55;;;2.60;;
76631;SDS011;65526;48.578;-4.520;2023-07-09T05:28:58;10.18;;;1.98;;
76631;SDS011;65526;48.578;-4.520;2023-07-09T05:31:24;15.80;;;2.85;;
76631;SDS011;65526;48.578;-4.520;2023-07-09T05:33:51;14.60;;;2.70;;
76631;SDS011;65526;48.578;-4.520;2023-07-09T05:36:17;18.52;;;2.80;;
76631;SDS011;65526;48.578;-4.520;2023-07-09T05:38:45;16.00;;;2.10;;
76631;SDS011;65526;48.578;-4.520;2023-07-09T05:41:13;14.52;;;2.30;;
76631;SDS011;65526;48.578;-4.520;2023-07-09T05:43:43;10.52;;;2.20;;
76631;SDS011;65526;48.578;-4.520;2023-07-09T05:46:13;13.88;;;3.17;;
76631;SDS011;65526;48.578;-4.520;2023-07-09T05:48:40;16.25;;;2.80;;
76631;SDS011;65526;48.578;-4.520;2023-07-09T05:51:07;12.25;;;2.45;;
76631;SDS011;65526;48.578;-4.520;2023-07-09T05:53:33;16.00;;;2.67;;
76631;SDS011;65526;48.578;-4.520;2023-07-09T05:56:01;10.02;;;2.28;;
76631;SDS011;65526;48.578;-4.520;2023-07-09T05:58:28;16.70;;;2.67;;
76631;SDS011;65526;48.578;-4.520;2023-07-09T06:00:54;13.57;;;1.98;;
76631;SDS011;65526;48.578;-4.520;2023-07-09T06:03:24;12.10;;;2.38;;
76631;SDS011;65526;48.578;-4.520;2023-07-09T06:08:21;11.25;;;2.22;;
76631;SDS011;65526;48.578;-4.520;2023-07-09T06:13:18;12.90;;;2.20;;
76631;SDS011;65526;48.578;-4.520;2023-07-09T06:15:45;12.15;;;2.45;;
76631;SDS011;65526;48.578;-4.520;2023-07-09T06:18:12;13.15;;;2.40;;
76631;SDS011;65526;48.578;-4.520;2023-07-09T06:20:39;18.33;;;2.53;;
76631;SDS011;65526;48.578;-4.520;2023-07-09T06:23:05;13.57;;;2.50;;
76631;SDS011;65526;48.578;-4.520;2023-07-09T06:25:32;11.25;;;2.28;;
76631;SDS011;65526;48.578;-4.520;2023-07-09T06:27:58;14.52;;;2.17;;
76631;SDS011;65526;48.578;-4.520;2023-07-09T06:30:24;19.90;;;3.20;;
76631;SDS011;65526;48.578;-4.520;2023-07-09T06:32:51;11.57;;;2.25;;
76631;SDS011;65526;48.578;-4.520;2023-07-09T06:35:17;16.60;;;2.70;;
76631;SDS011;65526;48.578;-4.520;2023-07-09T06:37:43;18.05;;;2.33;;
76631;SDS011;65526;48.578;-4.520;2023-07-09T06:40:10;12.55;;;2.38;;
76631;SDS011;65526;48.578;-4.520;2023-07-09T06:42:38;20.48;;;2.55;;
76631;SDS011;65526;48.578;-4.520;2023-07-09T06:45:23;14.82;;;3.33;;
76631;SDS011;65526;48.578;-4.520;2023-07-09T06:47:50;13.93;;;1.83;;
76631;SDS011;65526;48.578;-4.520;2023-07-09T06:50:16;16.13;;;2.22;;
76631;SDS011;65526;48.578;-4.520;2023-07-09T06:52:43;14.23;;;2.58;;
76631;SDS011;65526;48.578;-4.520;2023-07-09T06:55:10;9.90;;;2.40;;
76631;SDS011;65526;48.578;-4.520;2023-07-09T06:57:36;15.40;;;2.75;;
76631;SDS011;65526;48.578;-4.520;2023-07-09T07:00:03;20.05;;;2.55;;
76631;SDS011;65526;48.578;-4.520;2023-07-09T07:02:30;13.30;;;2.08;;
76631;SDS011;65526;48.578;-4.520;2023-07-09T07:04:57;15.65;;;2.25;;
76631;SDS011;65526;48.578;-4.520;2023-07-09T07:07:23;15.18;;;2.83;;
76631;SDS011;65526;48.578;-4.520;2023-07-09T07:09:50;13.52;;;2.20;;
76631;SDS011;65526;48.578;-4.520;2023-07-09T07:12:59;14.25;;;1.92;;
76631;SDS011;65526;48.578;-4.520;2023-07-09T07:15:10;18.00;;;2.35;;
76631;SDS011;65526;48.578;-4.520;2023-07-09T07:17:39;10.88;;;1.85;;
76631;SDS011;65526;48.578;-4.520;2023-07-09T07:20:06;14.80;;;2.47;;
76631;SDS011;65526;48.578;-4.520;2023-07-09T07:22:34;12.30;;;2.60;;
76631;SDS011;65526;48.578;-4.520;2023-07-09T07:25:00;16.58;;;3.53;;
76631;SDS011;65526;48.578;-4.520;2023-07-09T07:27:27;15.00;;;2.38;;
76631;SDS011;65526;48.578;-4.520;2023-07-09T07:29:53;15.68;;;2.38;;
76631;SDS011;65526;48.578;-4.520;2023-07-09T07:32:20;16.30;;;2.65;;
76631;SDS011;65526;48.578;-4.520;2023-07-09T07:34:46;13.13;;;2.17;;
76631;SDS011;65526;48.578;-4.520;2023-07-09T07:37:14;12.13;;;1.95;;
76631;SDS011;65526;48.578;-4.520;2023-07-09T07:39:41;16.92;;;1.90;;
76631;SDS011;65526;48.578;-4.520;2023-07-09T07:42:08;14.57;;;1.95;;
76631;SDS011;65526;48.578;-4.520;2023-07-09T07:44:34;13.25;;;1.63;;
76631;SDS011;65526;48.578;-4.520;2023-07-09T07:47:01;13.48;;;2.35;;
76631;SDS011;65526;48.578;-4.520;2023-07-09T07:49:31;10.93;;;1.88;;
76631;SDS011;65526;48.578;-4.520;2023-07-09T07:51:57;11.70;;;2.13;;
76631;SDS011;65526;48.578;-4.520;2023-07-09T07:54:24;9.65;;;1.77;;
76631;SDS011;65526;48.578;-4.520;2023-07-09T07:56:51;13.05;;;2.33;;
76631;SDS011;65526;48.578;-4.520;2023-07-09T07:59:17;11.18;;;1.90;;
76631;SDS011;65526;48.578;-4.520;2023-07-09T08:01:43;11.10;;;1.80;;
76631;SDS011;65526;48.578;-4.520;2023-07-09T08:04:10;11.13;;;1.70;;
76631;SDS011;65526;48.578;-4.520;2023-07-09T08:06:36;7.88;;;1.38;;
76631;SDS011;65526;48.578;-4.520;2023-07-09T08:09:02;10.07;;;1.45;;
76631;SDS011;65526;48.578;-4.520;2023-07-09T08:11:29;8.23;;;1.80;;
76631;SDS011;65526;48.578;-4.520;2023-07-09T08:13:58;4.90;;;1.70;;
76631;SDS011;65526;48.578;-4.520;2023-07-09T08:16:24;16.73;;;2.83;;
76631;SDS011;65526;48.578;-4.520;2023-07-09T08:18:51;9.93;;;1.58;;
76631;SDS011;65526;48.578;-4.520;2023-07-09T08:21:17;10.63;;;1.80;;
76631;SDS011;65526;48.578;-4.520;2023-07-09T08:23:44;8.02;;;2.00;;
76631;SDS011;65526;48.578;-4.520;2023-07-09T08:26:11;12.50;;;1.65;;
76631;SDS011;65526;48.578;-4.520;2023-07-09T08:28:38;13.50;;;2.38;;
76631;SDS011;65526;48.578;-4.520;2023-07-09T08:31:04;12.40;;;1.92;;
76631;SDS011;65526;48.578;-4.520;2023-07-09T08:33:30;7.75;;;1.80;;
76631;SDS011;65526;48.578;-4.520;2023-07-09T08:35:57;14.13;;;1.50;;
76631;SDS011;65526;48.578;-4.520;2023-07-09T08:38:26;9.80;;;1.40;;
76631;SDS011;65526;48.578;-4.520;2023-07-09T08:40:57;9.40;;;1.42;;
76631;SDS011;65526;48.578;-4.520;2023-07-09T08:46:21;11.13;;;1.52;;
76631;SDS011;65526;48.578;-4.520;2023-07-09T08:48:50;11.20;;;2.00;;
76631;SDS011;65526;48.578;-4.520;2023-07-09T08:51:21;7.63;;;1.13;;
76631;SDS011;65526;48.578;-4.520;2023-07-09T08:53:56;9.82;;;1.80;;
76631;SDS011;65526;48.578;-4.520;2023-07-09T08:56:25;10.23;;;1.42;;
76631;SDS011;65526;48.578;-4.520;2023-07-09T08:58:55;13.82;;;1.35;;
76631;SDS011;65526;48.578;-4.520;2023-07-09T09:01:33;17.00;;;2.10;;
76631;SDS011;65526;48.578;-4.520;2023-07-09T09:04:19;7.03;;;1.52;;
76631;SDS011;65526;48.578;-4.520;2023-07-09T09:07:07;10.43;;;1.58;;
76631;SDS011;65526;48.578;-4.520;2023-07-09T09:14:52;6.47;;;1.23;;
76631;SDS011;65526;48.578;-4.520;2023-07-09T09:17:24;6.55;;;1.50;;
76631;SDS011;65526;48.578;-4.520;2023-07-09T09:19:55;12.30;;;1.55;;
76631;SDS011;65526;48.578;-4.520;2023-07-09T09:22:27;8.80;;;1.40;;
76631;SDS011;65526;48.578;-4.520;2023-07-09T09:25:20;6.63;;;0.95;;
76631;SDS011;65526;48.578;-4.520;2023-07-09T09:27:51;5.32;;;1.10;;
76631;SDS011;65526;48.578;-4.520;2023-07-09T09:30:18;9.68;;;1.65;;
76631;SDS011;65526;48.578;-4.520;2023-07-09T09:32:56;6.53;;;1.42;;
76631;SDS011;65526;48.578;-4.520;2023-07-09T09:35:29;10.35;;;1.45;;
76631;SDS011;65526;48.578;-4.520;2023-07-09T09:38:01;10.27;;;1.35;;
76631;SDS011;65526;48.578;-4.520;2023-07-09T09:40:29;10.82;;;1.60;;
76631;SDS011;65526;48.578;-4.520;2023-07-09T09:43:01;5.22;;;1.38;;
76631;SDS011;65526;48.578;-4.520;2023-07-09T09:45:35;9.45;;;0.90;;
76631;SDS011;65526;48.578;-4.520;2023-07-09T09:48:26;7.50;;;1.08;;
76631;SDS011;65526;48.578;-4.520;2023-07-09T09:50:55;6.63;;;1.50;;
76631;SDS011;65526;48.578;-4.520;2023-07-09T09:53:28;8.45;;;1.35;;
76631;SDS011;65526;48.578;-4.520;2023-07-09T09:55:56;10.43;;;1.60;;
76631;SDS011;65526;48.578;-4.520;2023-07-09T09:58:27;8.88;;;1.00;;
76631;SDS011;65526;48.578;-4.520;2023-07-09T10:00:56;10.23;;;2.17;;
76631;SDS011;65526;48.578;-4.520;2023-07-09T10:03:42;13.35;;;1.92;;
76631;SDS011;65526;48.578;-4.520;2023-07-09T10:06:17;11.18;;;1.50;;
76631;SDS011;65526;48.578;-4.520;2023-07-09T10:08:50;13.88;;;1.70;;
76631;SDS011;65526;48.578;-4.520;2023-07-09T10:14:31;13.50;;;1.60;;
76631;SDS011;65526;48.578;-4.520;2023-07-09T10:16:57;11.57;;;1.30;;
76631;SDS011;65526;48.578;-4.520;2023-07-09T10:25:01;7.68;;;1.65;;
76631;SDS011;65526;48.578;-4.520;2023-07-09T10:27:42;13.07;;;1.60;;
76631;SDS011;65526;48.578;-4.520;2023-07-09T10:30:34;9.15;;;1.33;;
76631;SDS011;65526;48.578;-4.520;2023-07-09T10:33:14;12.73;;;1.77;;
76631;SDS011;65526;48.578;-4.520;2023-07-09T10:35:55;11.43;;;1.95;;
76631;SDS011;65526;48.578;-4.520;2023-07-09T10:43:53;6.65;;;1.55;;
76631;SDS011;65526;48.578;-4.520;2023-07-09T10:49:03;8.30;;;1.33;;
76631;SDS011;65526;48.578;-4.520;2023-07-09T10:51:32;7.18;;;1.25;;
76631;SDS011;65526;48.578;-4.520;2023-07-09T10:54:14;6.75;;;1.52;;
76631;SDS011;65526;48.578;-4.520;2023-07-09T10:56:50;8.90;;;2.03;;
76631;SDS011;65526;48.578;-4.520;2023-07-09T10:59:28;13.18;;;2.28;;
76631;SDS011;65526;48.578;-4.520;2023-07-09T11:02:13;7.32;;;1.50;;
76631;SDS011;65526;48.578;-4.520;2023-07-09T11:05:01;8.18;;;1.70;;
76631;SDS011;65526;48.578;-4.520;2023-07-09T11:07:35;11.80;;;1.80;;
76631;SDS011;65526;48.578;-4.520;2023-07-09T11:10:06;10.48;;;2.15;;
76631;SDS011;65526;48.578;-4.520;2023-07-09T11:12:44;5.70;;;1.63;;
76631;SDS011;65526;48.578;-4.520;2023-07-09T11:15:23;7.47;;;1.60;;
76631;SDS011;65526;48.578;-4.520;2023-07-09T11:17:57;12.52;;;1.65;;
76631;SDS011;65526;48.578;-4.520;2023-07-09T11:20:28;5.82;;;1.23;;
76631;SDS011;65526;48.578;-4.520;2023-07-09T11:23:03;6.15;;;1.13;;
76631;SDS011;65526;48.578;-4.520;2023-07-09T11:28:08;9.98;;;1.50;;
76631;SDS011;65526;48.578;-4.520;2023-07-09T11:30:48;11.35;;;1.30;;
76631;SDS011;65526;48.578;-4.520;2023-07-09T11:33:18;8.20;;;1.50;;
76631;SDS011;65526;48.578;-4.520;2023-07-09T11:38:43;7.68;;;1.33;;
76631;SDS011;65526;48.578;-4.520;2023-07-09T11:44:24;7.13;;;1.20;;
76631;SDS011;65526;48.578;-4.520;2023-07-09T11:50:05;10.68;;;1.40;;
76631;SDS011;65526;48.578;-4.520;2023-07-09T11:52:51;10.13;;;1.73;;
76631;SDS011;65526;48.578;-4.520;2023-07-09T11:55:26;9.68;;;1.92;;
76631;SDS011;65526;48.578;-4.520;2023-07-09T11:58:07;8.55;;;1.17;;
76631;SDS011;65526;48.578;-4.520;2023-07-09T12:00:37;8.32;;;1.48;;
76631;SDS011;65526;48.578;-4.520;2023-07-09T12:03:07;9.80;;;1.42;;
76631;SDS011;65526;48.578;-4.520;2023-07-09T12:05:40;10.52;;;1.95;;
76631;SDS011;65526;48.578;-4.520;2023-07-09T12:08:14;7.38;;;1.80;;
76631;SDS011;65526;48.578;-4.520;2023-07-09T12:10:42;10.23;;;2.08;;
76631;SDS011;65526;48.578;-4.520;2023-07-09T12:13:10;10.35;;;2.15;;
76631;SDS011;65526;48.578;-4.520;2023-07-09T12:15:38;7.30;;;2.10;;
76631;SDS011;65526;48.578;-4.520;2023-07-09T12:18:13;8.70;;;1.60;;
76631;SDS011;65526;48.578;-4.520;2023-07-09T12:23:29;8.45;;;1.90;;
76631;SDS011;65526;48.578;-4.520;2023-07-09T12:26:01;5.32;;;1.20;;
76631;SDS011;65526;48.578;-4.520;2023-07-09T12:28:29;4.10;;;1.60;;
76631;SDS011;65526;48.578;-4.520;2023-07-09T12:30:56;12.90;;;1.60;;
76631;SDS011;65526;48.578;-4.520;2023-07-09T12:33:26;7.82;;;1.38;;
76631;SDS011;65526;48.578;-4.520;2023-07-09T12:35:58;6.28;;;1.58;;
76631;SDS011;65526;48.578;-4.520;2023-07-09T12:38:27;8.10;;;1.45;;
76631;SDS011;65526;48.578;-4.520;2023-07-09T12:40:59;7.13;;;1.33;;
76631;SDS011;65526;48.578;-4.520;2023-07-09T12:43:29;7.60;;;1.88;;
76631;SDS011;65526;48.578;-4.520;2023-07-09T12:46:00;9.48;;;1.30;;
76631;SDS011;65526;48.578;-4.520;2023-07-09T12:48:28;10.15;;;1.52;;
76631;SDS011;65526;48.578;-4.520;2023-07-09T12:50:57;6.35;;;1.20;;
76631;SDS011;65526;48.578;-4.520;2023-07-09T12:53:25;9.88;;;1.80;;
76631;SDS011;65526;48.578;-4.520;2023-07-09T12:55:56;7.63;;;1.40;;
76631;SDS011;65526;48.578;-4.520;2023-07-09T12:58:27;5.95;;;1.38;;
76631;SDS011;65526;48.578;-4.520;2023-07-09T13:00:59;13.98;;;2.45;;
76631;SDS011;65526;48.578;-4.520;2023-07-09T13:03:30;6.07;;;1.23;;
76631;SDS011;65526;48.578;-4.520;2023-07-09T13:06:03;8.25;;;1.50;;
76631;SDS011;65526;48.578;-4.520;2023-07-09T13:08:32;4.30;;;1.00;;
76631;SDS011;65526;48.578;-4.520;2023-07-09T13:11:14;4.82;;;1.20;;
76631;SDS011;65526;48.578;-4.520;2023-07-09T13:13:41;9.98;;;1.63;;
76631;SDS011;65526;48.578;-4.520;2023-07-09T13:16:07;7.72;;;1.00;;
76631;SDS011;65526;48.578;-4.520;2023-07-09T13:18:34;6.47;;;1.13;;
76631;SDS011;65526;48.578;-4.520;2023-07-09T13:21:05;7.10;;;1.10;;
76631;SDS011;65526;48.578;-4.520;2023-07-09T13:23:42;10.63;;;1.70;;
76631;SDS011;65526;48.578;-4.520;2023-07-09T13:26:08;6.72;;;1.55;;
76631;SDS011;65526;48.578;-4.520;2023-07-09T13:28:35;9.05;;;1.92;;
76631;SDS011;65526;48.578;-4.520;2023-07-09T13:31:09;4.97;;;1.17;;
76631;SDS011;65526;48.578;-4.520;2023-07-09T13:33:39;6.15;;;1.40;;
76631;SDS011;65526;48.578;-4.520;2023-07-09T13:36:05;8.60;;;1.65;;
76631;SDS011;65526;48.578;-4.520;2023-07-09T13:38:32;6.63;;;1.20;;
76631;SDS011;65526;48.578;-4.520;2023-07-09T13:41:00;7.75;;;1.30;;
76631;SDS011;65526;48.578;-4.520;2023-07-09T13:43:37;10.20;;;1.50;;
76631;SDS011;65526;48.578;-4.520;2023-07-09T13:46:07;9.35;;;1.42;;
76631;SDS011;65526;48.578;-4.520;2023-07-09T13:48:36;8.00;;;1.10;;
76631;SDS011;65526;48.578;-4.520;2023-07-09T13:53:50;11.50;;;1.73;;
76631;SDS011;65526;48.578;-4.520;2023-07-09T13:56:19;10.63;;;1.40;;
76631;SDS011;65526;48.578;-4.520;2023-07-09T13:58:46;10.07;;;1.30;;
76631;SDS011;65526;48.578;-4.520;2023-07-09T14:01:14;14.55;;;1.88;;
76631;SDS011;65526;48.578;-4.520;2023-07-09T14:03:44;7.07;;;1.52;;
76631;SDS011;65526;48.578;-4.520;2023-07-09T14:06:12;6.80;;;1.38;;
76631;SDS011;65526;48.578;-4.520;2023-07-09T14:08:40;7.70;;;1.45;;
76631;SDS011;65526;48.578;-4.520;2023-07-09T14:11:13;6.22;;;1.15;;
76631;SDS011;65526;48.578;-4.520;2023-07-09T14:13:42;7.63;;;1.30;;
76631;SDS011;65526;48.578;-4.520;2023-07-09T14:16:10;10.35;;;1.40;;
76631;SDS011;65526;48.578;-4.520;2023-07-09T14:18:37;6.68;;;1.10;;
76631;SDS011;65526;48.578;-4.520;2023-07-09T14:21:17;3.33;;;1.00;;
76631;SDS011;65526;48.578;-4.520;2023-07-09T14:23:49;5.95;;;1.00;;
76631;SDS011;65526;48.578;-4.520;2023-07-09T14:26:15;5.53;;;1.13;;
76631;SDS011;65526;48.578;-4.520;2023-07-09T14:28:42;11.13;;;1.30;;
76631;SDS011;65526;48.578;-4.520;2023-07-09T14:31:18;7.63;;;1.42;;
76631;SDS011;65526;48.578;-4.520;2023-07-09T14:33:51;9.55;;;1.38;;
76631;SDS011;65526;48.578;-4.520;2023-07-09T14:36:17;5.15;;;1.33;;
76631;SDS011;65526;48.578;-4.520;2023-07-09T14:38:43;7.72;;;1.15;;
76631;SDS011;65526;48.578;-4.520;2023-07-09T14:41:21;4.75;;;1.05;;
76631;SDS011;65526;48.578;-4.520;2023-07-09T14:43:49;5.75;;;0.88;;
76631;SDS011;65526;48.578;-4.520;2023-07-09T14:46:16;6.85;;;1.02;;
76631;SDS011;65526;48.578;-4.520;2023-07-09T14:48:42;3.83;;;1.10;;
76631;SDS011;65526;48.578;-4.520;2023-07-09T14:51:13;5.53;;;0.90;;
76631;SDS011;65526;48.578;-4.520;2023-07-09T14:53:41;6.15;;;1.13;;
76631;SDS011;65526;48.578;-4.520;2023-07-09T14:56:13;7.57;;;1.10;;
76631;SDS011;65526;48.578;-4.520;2023-07-09T14:58:40;5.38;;;1.23;;
76631;SDS011;65526;48.578;-4.520;2023-07-09T15:01:13;7.18;;;1.15;;
76631;SDS011;65526;48.578;-4.520;2023-07-09T15:03:40;5.65;;;1.10;;
76631;SDS011;65526;48.578;-4.520;2023-07-09T15:06:07;7.40;;;0.90;;
76631;SDS011;65526;48.578;-4.520;2023-07-09T15:08:33;5.40;;;1.10;;
76631;SDS011;65526;48.578;-4.520;2023-07-09T15:10:59;5.88;;;1.85;;
76631;SDS011;65526;48.578;-4.520;2023-07-09T15:13:30;3.13;;;0.68;;
76631;SDS011;65526;48.578;-4.520;2023-07-09T15:15:59;6.35;;;1.20;;
76631;SDS011;65526;48.578;-4.520;2023-07-09T15:18:26;9.23;;;1.20;;
76631;SDS011;65526;48.578;-4.520;2023-07-09T15:20:57;10.15;;;1.30;;
76631;SDS011;65526;48.578;-4.520;2023-07-09T15:23:24;6.47;;;0.82;;
76631;SDS011;65526;48.578;-4.520;2023-07-09T15:25:53;6.38;;;1.35;;
76631;SDS011;65526;48.578;-4.520;2023-07-09T15:28:20;4.75;;;0.98;;
76631;SDS011;65526;48.578;-4.520;2023-07-09T15:30:47;6.07;;;1.10;;
76631;SDS011;65526;48.578;-4.520;2023-07-09T15:33:20;5.53;;;1.13;;